Time;durP1;ratioP1;P1;durP2;ratioP2;P2;SDS_P1;SDS_P2;PMS_P1;PMS_P2;Temp;Humidity;BMP_temperature;BMP_pressure;BME280_temperature;BME280_humidity;BME280_pressure;Samples;Min_cycle;Max_cycle;Signal;HPM_P1;HPM_P2
2021/06/17 00:01:27;;;;;;;;;;;;;;;28.31;43.96;100938.31;5081608;27;69941;-35
2021/06/17 00:03:57;;;;;;;;;;;;;;;28.38;44.05;100936.47;5072704;27;66714;-35
2021/06/17 00:06:28;;;;;;;;;;;;;;;28.48;53.02;100942.34;5084255;27;69161;-39
2021/06/17 00:08:59;;;;;;;;;;;;;;;28.66;56.28;100949.03;5082198;27;66210;-35
2021/06/17 00:11:30;;;;;;;;;;;;;;;28.86;58.25;100947.25;5084580;27;70435;-34
2021/06/17 00:14:01;;;;;;;;;;;;;;;29.04;61.04;100943.13;5090559;27;66276;-35
2021/06/17 00:16:32;;;;;;;;;;;;;;;29.14;61.48;100954.34;5078905;27;69223;-36
2021/06/17 00:19:03;;;;;;;;;;;;;;;29.27;62.22;100946.25;5084205;27;66361;-34
2021/06/17 00:21:34;;;;;;;;;;;;;;;29.42;62.27;100945.19;5084126;27;69827;-33
2021/06/17 00:24:05;;;;;;;;;;;;;;;29.52;62.17;100942.91;5078754;27;66249;-35
2021/06/17 00:26:35;;;;;;;;;;;;;;;29.62;64.24;100949.56;5081629;27;69361;-33
2021/06/17 00:29:07;;;;;;;;;;;;;;;29.72;63.35;100949.13;5081955;27;65879;-33
2021/06/17 00:31:39;;;;;;;;;;;;;;;29.82;65.19;100944.13;5079971;27;69703;-33
2021/06/17 00:34:10;;;;;;;;;;;;;;;29.93;65.25;100956.19;5087656;27;66129;-33
2021/06/17 00:36:42;;;;;;;;;;;;;;;30.02;62.81;100948.66;5086332;27;69064;-34
2021/06/17 00:39:13;;;;;;;;;;;;;;;30.12;62.82;100946.34;5084227;27;66538;-33
2021/06/17 00:41:50;;;;;;;;;;;;;;;30.20;62.00;100946.13;5085238;27;69088;-34
2021/06/17 00:44:20;;;;;;;;;;;;;;;30.26;61.98;100952.56;5085984;27;65120;-33
2021/06/17 00:46:52;;;;;;;;;;;;;;;30.30;61.56;100953.78;5095919;27;69867;-33
2021/06/17 00:49:22;;;;;;;;;;;;;;;30.38;61.87;100963.56;5082839;27;65323;-33
2021/06/17 00:51:53;;;;;;;;;;;;;;;30.41;61.33;100963.94;5084020;27;69460;-34
2021/06/17 00:54:33;;;;;;;;;;;;;;;30.47;61.09;100967.66;5082485;27;66934;-34
2021/06/17 00:57:05;;;;;;;;;;;;;;;30.52;60.54;100965.13;5087546;27;69832;-33
2021/06/17 00:59:36;;;;;;;;;;;;;;;30.57;60.49;100968.03;5082299;27;66135;-32
2021/06/17 01:02:07;;;;;;;;;;;;;;;30.61;60.22;100963.84;5088404;27;70283;-33
2021/06/17 01:04:38;;;;;;;;;;;;;;;30.65;59.94;100972.38;5085539;27;65640;-33
2021/06/17 01:07:09;;;;;;;;;;;;;;;30.68;60.07;100974.66;5079470;27;70450;-33
2021/06/17 01:09:46;;;;;;;;;;;;;;;30.71;60.14;100976.91;5080910;27;66492;-33
2021/06/17 01:12:21;;;;;;;;;;;;;;;30.73;59.63;100972.13;5084397;27;70004;-32
2021/06/17 01:14:56;;;;;;;;;;;;;;;30.76;59.40;100962.72;5084467;27;66200;-32
2021/06/17 01:17:30;;;;;;;;;;;;;;;30.78;59.45;100966.88;5087129;27;71122;-33
2021/06/17 01:20:06;;;;;;;;;;;;;;;30.82;59.55;100967.31;5081156;27;65845;-33
2021/06/17 01:22:40;;;;;;;;;;;;;;;30.84;59.66;100962.47;5084160;27;70229;-32
2021/06/17 01:25:13;;;;;;;;;;;;;;;30.85;59.47;100969.59;5080958;27;66070;-33
2021/06/17 01:27:54;;;;;;;;;;;;;;;30.90;59.22;100972.47;5088870;27;69980;-34
2021/06/17 01:30:26;;;;;;;;;;;;;;;30.91;59.13;100963.28;5087437;27;65575;-33
2021/06/17 01:32:58;;;;;;;;;;;;;;;30.93;59.07;100972.84;5081502;27;70048;-34
2021/06/17 01:35:32;;;;;;;;;;;;;;;30.99;58.48;100975.75;5087804;27;65309;-34
2021/06/17 01:38:05;;;;;;;;;;;;;;;31.01;58.79;100974.47;5081749;27;69191;-33
2021/06/17 01:40:36;;;;;;;;;;;;;;;31.01;58.56;100982.59;5088073;27;66697;-33
2021/06/17 01:43:08;;;;;;;;;;;;;;;31.03;58.49;100975.06;5087998;27;68671;-34
2021/06/17 01:45:39;;;;;;;;;;;;;;;31.06;58.46;100977.34;5069165;27;65849;-33
2021/06/17 01:48:10;;;;;;;;;;;;;;;31.08;58.80;100980.66;5089802;27;70912;-34
2021/06/17 01:50:45;;;;;;;;;;;;;;;31.10;58.31;100975.84;5082401;27;65658;-33
2021/06/17 01:53:17;;;;;;;;;;;;;;;31.12;58.08;100987.31;5081458;27;69804;-33
2021/06/17 01:55:49;;;;;;;;;;;;;;;31.14;58.31;100990.63;5080817;27;66666;-32
2021/06/17 01:58:20;;;;;;;;;;;;;;;31.16;57.83;100988.53;5079213;27;69724;-33
2021/06/17 02:00:51;;;;;;;;;;;;;;;31.20;58.00;100988.91;5088207;27;66305;-33
2021/06/17 02:03:23;;;;;;;;;;;;;;;31.22;58.28;100986.81;5077455;27;69352;-33
2021/06/17 02:05:56;;;;;;;;;;;;;;;31.23;58.14;100983.06;5083055;27;66585;-34
2021/06/17 02:08:29;;;;;;;;;;;;;;;31.27;57.72;100988.88;5080143;27;69816;-34
2021/06/17 02:11:00;;;;;;;;;;;;;;;31.31;57.89;100979.22;5082896;27;66886;-34
2021/06/17 02:13:32;;;;;;;;;;;;;;;31.33;57.68;100982.56;5085176;27;68980;-37
2021/06/17 02:16:04;;;;;;;;;;;;;;;31.35;57.66;100983.19;5081562;27;66183;-34
2021/06/17 02:18:37;;;;;;;;;;;;;;;31.37;57.85;100981.09;5090412;27;69978;-33
2021/06/17 02:21:08;;;;;;;;;;;;;;;31.40;57.16;100972.53;5082881;27;65565;-34
2021/06/17 02:23:42;;;;;;;;;;;;;;;31.43;57.13;100971.28;5084591;27;69886;-32
2021/06/17 02:26:13;;;;;;;;;;;;;;;31.45;57.67;100980.81;5079816;27;65296;-34
2021/06/17 02:28:46;;;;;;;;;;;;;;;31.47;57.40;100975.19;5081283;27;68890;-33
2021/06/17 02:31:26;;;;;;;;;;;;;;;31.50;57.48;100975.56;5077826;27;66417;-33
2021/06/17 02:33:58;;;;;;;;;;;;;;;31.54;56.75;100973.25;5083299;27;70667;-34
2021/06/17 02:36:29;;;;;;;;;;;;;;;31.55;57.03;100974.91;5086009;27;66814;-33
2021/06/17 02:39:04;;;;;;;;;;;;;;;31.59;57.05;100978.81;5082719;27;70656;-33
2021/06/17 02:41:38;;;;;;;;;;;;;;;31.61;56.48;100984.84;5084077;27;66447;-33
2021/06/17 02:44:10;;;;;;;;;;;;;;;31.61;56.68;100982.97;5086001;27;70777;-33
2021/06/17 02:46:41;;;;;;;;;;;;;;;31.65;56.42;100979.81;5083228;27;66765;-33
2021/06/17 02:49:12;;;;;;;;;;;;;;;31.69;56.76;100981.03;5084500;27;69800;-32
2021/06/17 02:51:43;;;;;;;;;;;;;;;31.70;56.38;100974.53;5091036;27;66285;-33
2021/06/17 02:54:23;;;;;;;;;;;;;;;31.74;56.27;100983.91;5079357;27;69902;-33
2021/06/17 02:57:00;;;;;;;;;;;;;;;31.77;56.26;100984.28;5074956;27;65317;-33
2021/06/17 02:59:38;;;;;;;;;;;;;;;31.80;56.50;100983.00;5087666;27;69436;-33
2021/06/17 03:02:19;;;;;;;;;;;;;;;31.80;56.37;100983.00;5101063;27;65593;-33
2021/06/17 03:04:53;;;;;;;;;;;;;;;31.81;56.38;100988.19;5082096;27;69763;-33
2021/06/17 03:07:25;;;;;;;;;;;;;;;31.85;55.92;100988.59;5079488;27;66270;-34
2021/06/17 03:10:01;;;;;;;;;;;;;;;31.87;56.08;100994.59;5080150;27;69917;-33
2021/06/17 03:12:32;;;;;;;;;;;;;;;31.91;55.96;100995.00;5082299;27;66181;-33
2021/06/17 03:15:05;;;;;;;;;;;;;;;31.93;56.18;100996.47;5081025;27;69128;-33
2021/06/17 03:17:39;;;;;;;;;;;;;;;31.94;56.03;100994.56;5075462;27;66695;-34
2021/06/17 03:20:11;;;;;;;;;;;;;;;31.95;56.22;100991.63;5085389;27;70196;-34
2021/06/17 03:22:45;;;;;;;;;;;;;;;31.95;55.92;100991.63;5077324;27;66042;-33
2021/06/17 03:25:18;;;;;;;;;;;;;;;32.01;55.90;100987.19;5080028;27;69438;-34
2021/06/17 03:27:50;;;;;;;;;;;;;;;32.03;55.49;100983.19;5080338;27;65381;-33
2021/06/17 03:30:26;;;;;;;;;;;;;;;32.05;55.68;100978.38;5086036;27;70099;-34
2021/06/17 03:32:59;;;;;;;;;;;;;;;32.10;55.64;100982.31;5083731;27;66114;-32
2021/06/17 03:35:32;;;;;;;;;;;;;;;32.11;55.44;100979.34;5082131;27;70073;-33
2021/06/17 03:38:03;;;;;;;;;;;;;;;32.15;55.50;100975.16;5089803;27;66858;-34
2021/06/17 03:40:36;;;;;;;;;;;;;;;32.16;55.38;100970.53;5083417;27;70064;-34
2021/06/17 03:43:07;;;;;;;;;;;;;;;32.17;55.17;100962.16;5082076;27;65478;-33
2021/06/17 03:45:39;;;;;;;;;;;;;;;32.21;55.64;100962.56;5082206;27;69814;-33
2021/06/17 03:48:14;;;;;;;;;;;;;;;32.25;55.46;100963.75;5075750;27;66362;-33
2021/06/17 03:50:46;;;;;;;;;;;;;;;32.25;55.44;100959.13;5079425;27;71178;-33
2021/06/17 03:53:19;;;;;;;;;;;;;;;32.30;55.06;100955.75;5079886;27;66118;-33
2021/06/17 03:55:52;;;;;;;;;;;;;;;32.32;55.14;100955.50;5079504;27;69432;-33
2021/06/17 03:58:26;;;;;;;;;;;;;;;32.35;54.85;100952.34;5087803;27;65964;-33
2021/06/17 04:00:58;;;;;;;;;;;;;;;32.36;55.36;100959.44;5081545;27;69028;-31
2021/06/17 04:03:29;;;;;;;;;;;;;;;32.37;55.19;100953.75;5086438;27;66154;-33
2021/06/17 04:06:01;;;;;;;;;;;;;;;32.38;55.20;100951.91;5082547;27;69857;-33
2021/06/17 04:08:35;;;;;;;;;;;;;;;32.43;55.00;100947.44;5082693;27;65996;-35
2021/06/17 04:11:08;;;;;;;;;;;;;;;32.46;55.19;100947.00;5081701;27;69736;-33
2021/06/17 04:13:42;;;;;;;;;;;;;;;32.52;54.88;100949.88;5082814;27;65559;-32
2021/06/17 04:16:15;;;;;;;;;;;;;;;32.55;55.05;100941.25;5083742;27;70035;-34
2021/06/17 04:18:48;;;;;;;;;;;;;;;32.55;54.46;100933.09;5089420;27;65863;-34
2021/06/17 04:21:20;;;;;;;;;;;;;;;32.58;54.69;100936.19;5084124;27;69836;-34
2021/06/17 04:23:52;;;;;;;;;;;;;;;32.60;54.50;100935.97;5081320;27;65406;-33
2021/06/17 04:26:25;;;;;;;;;;;;;;;32.64;54.73;100939.84;5081793;27;69682;-37
2021/06/17 04:28:57;;;;;;;;;;;;;;;32.67;54.44;100928.53;5084198;27;65539;-33
2021/06/17 04:31:29;;;;;;;;;;;;;;;32.70;54.46;100928.06;5083237;27;70842;-34
2021/06/17 04:34:00;;;;;;;;;;;;;;;32.74;54.17;100928.44;5086006;27;65977;-34
2021/06/17 04:36:31;;;;;;;;;;;;;;;32.74;54.42;100918.41;5079419;27;70475;-34
2021/06/17 04:39:03;;;;;;;;;;;;;;;32.77;54.07;100920.66;5085814;27;66254;-34
2021/06/17 04:41:36;;;;;;;;;;;;;;;32.78;54.52;100914.16;5082117;27;70129;-34
2021/06/17 04:44:07;;;;;;;;;;;;;;;32.81;54.23;100919.13;5085737;27;66478;-33
2021/06/17 04:46:39;;;;;;;;;;;;;;;32.83;54.21;100917.00;5084187;27;70530;-34
2021/06/17 04:49:13;;;;;;;;;;;;;;;32.86;54.01;100919.25;5073307;27;66363;-33
2021/06/17 04:51:45;;;;;;;;;;;;;;;32.88;54.01;100913.59;5088672;27;70227;-33
2021/06/17 04:54:18;;;;;;;;;;;;;;;32.88;53.89;100909.00;5080378;27;67047;-35
2021/06/17 04:56:50;;;;;;;;;;;;;;;32.89;53.99;100905.19;5092526;27;69049;-34
2021/06/17 04:59:21;;;;;;;;;;;;;;;32.91;53.88;100903.09;5083457;27;66363;-35
2021/06/17 05:01:54;;;;;;;;;;;;;;;32.96;54.19;100909.69;5084682;27;69324;-34
2021/06/17 05:04:26;;;;;;;;;;;;;;;32.96;53.95;100893.38;5079932;27;66187;-34
2021/06/17 05:07:22;;;;;;;;;;;;;;;33.00;53.84;100905.50;5089196;27;68727;-34
2021/06/17 05:12:38;;;;;;;;;;;;;;;33.03;53.88;100884.09;5082457;27;70048;-33
2021/06/17 05:15:10;;;;;;;;;;;;;;;33.03;53.84;100875.13;5081980;27;66306;-32
2021/06/17 05:17:43;;;;;;;;;;;;;;;33.07;53.85;100879.88;5079872;27;69972;-33
2021/06/17 05:20:20;;;;;;;;;;;;;;;33.11;53.94;100874.78;5080679;27;65280;-33
2021/06/17 05:22:52;;;;;;;;;;;;;;;33.12;53.85;100871.00;5084577;27;70583;-33
2021/06/17 05:25:23;;;;;;;;;;;;;;;33.17;53.58;100865.69;5085233;27;66587;-34
2021/06/17 05:27:58;;;;;;;;;;;;;;;33.18;53.76;100864.59;5086041;27;69985;-33
2021/06/17 05:30:30;;;;;;;;;;;;;;;33.21;53.75;100864.16;5085444;27;66151;-34
2021/06/17 05:33:02;;;;;;;;;;;;;;;33.25;53.51;100856.34;5094143;27;69872;-34
2021/06/17 05:35:34;;;;;;;;;;;;;;;33.24;53.72;100851.94;5089444;27;65794;-34
2021/06/17 05:38:05;;;;;;;;;;;;;;;33.27;53.72;100846.88;5083252;27;69678;-34
2021/06/17 05:40:37;;;;;;;;;;;;;;;33.26;53.68;100828.91;5084110;27;66169;-33
2021/06/17 05:43:08;;;;;;;;;;;;;;;33.31;53.44;100825.47;5096441;27;70731;-34
2021/06/17 05:45:41;;;;;;;;;;;;;;;33.31;53.51;100820.88;5057533;27;66170;-34
2021/06/17 05:48:13;;;;;;;;;;;;;;;33.36;53.40;100814.72;5079905;27;69571;-37
2021/06/17 05:50:44;;;;;;;;;;;;;;;33.37;53.43;100809.03;5080151;27;66535;-34
2021/06/17 05:53:16;;;;;;;;;;;;;;;33.41;53.33;100798.53;5081969;27;69048;-33
2021/06/17 05:55:47;;;;;;;;;;;;;;;33.44;53.31;100792.59;5107427;27;66631;-32
2021/06/17 05:58:19;;;;;;;;;;;;;;;33.42;53.45;100789.28;5077607;27;70287;-34
2021/06/17 06:00:50;;;;;;;;;;;;;;;33.47;53.25;100791.31;5085382;27;66316;-34
2021/06/17 06:03:21;;;;;;;;;;;;;;;33.49;53.32;100780.97;5085465;27;69347;-33
2021/06/17 06:05:55;;;;;;;;;;;;;;;33.49;53.21;100776.41;5087496;27;43199;-35
2021/06/17 06:08:27;;;;;;;;;;;;;;;33.48;53.23;100774.72;5075677;27;69989;-34
2021/06/17 06:10:58;;;;;;;;;;;;;;;33.52;53.11;100772.38;5089796;27;66647;-34
2021/06/17 06:13:33;;;;;;;;;;;;;;;33.53;53.16;100774.03;5086737;27;69452;-33
2021/06/17 06:16:04;;;;;;;;;;;;;;;33.59;53.01;100767.63;5082510;27;66336;-33
2021/06/17 06:18:37;;;;;;;;;;;;;;;33.58;53.01;100772.25;5090878;27;69620;-33
2021/06/17 06:21:12;;;;;;;;;;;;;;;33.57;53.23;100754.28;5086519;27;66501;-34
2021/06/17 06:23:43;;;;;;;;;;;;;;;33.57;53.04;100756.16;5081882;27;70872;-34
2021/06/17 06:26:15;;;;;;;;;;;;;;;33.59;53.21;100756.75;5095151;27;65300;-33
2021/06/17 06:28:46;;;;;;;;;;;;;;;33.61;53.24;100748.38;5081006;27;70108;-34
2021/06/17 06:31:18;;;;;;;;;;;;;;;33.59;53.06;100746.69;5079456;27;66576;-34
2021/06/17 06:33:49;;;;;;;;;;;;;;;33.61;53.00;100738.31;5082379;27;69047;-33
2021/06/17 06:36:21;;;;;;;;;;;;;;;33.62;53.04;100737.22;5079108;27;66038;-33
2021/06/17 06:38:53;;;;;;;;;;;;;;;33.62;52.91;100729.06;5085846;27;69741;-36
2021/06/17 06:41:24;;;;;;;;;;;;;;;33.62;52.89;100731.78;5084921;27;64992;-35
2021/06/17 06:43:55;;;;;;;;;;;;;;;33.65;53.03;100736.75;5075502;27;69308;-34
2021/06/17 06:46:27;;;;;;;;;;;;;;;33.68;52.98;100706.31;5080915;27;65631;-34
2021/06/17 06:48:59;;;;;;;;;;;;;;;33.72;52.99;100712.94;5081408;27;69384;-34
2021/06/17 06:51:35;;;;;;;;;;;;;;;33.71;52.92;100711.31;5081184;27;66071;-34
2021/06/17 06:54:08;;;;;;;;;;;;;;;33.74;53.04;100710.81;5081321;27;69890;-34
2021/06/17 06:56:41;;;;;;;;;;;;;;;33.75;52.89;100703.47;5077782;27;66549;-35
2021/06/17 06:59:14;;;;;;;;;;;;;;;33.79;52.74;100701.91;5080472;27;71182;-34
2021/06/17 07:01:46;;;;;;;;;;;;;;;33.84;52.72;100703.91;5089385;27;66638;-33
2021/06/17 07:04:18;;;;;;;;;;;;;;;33.87;52.64;100708.84;5078940;27;70209;-33
2021/06/17 07:06:50;;;;;;;;;;;;;;;33.92;52.55;100698.06;5086560;27;65960;-34
2021/06/17 07:09:23;;;;;;;;;;;;;;;33.96;52.53;100691.03;5080242;27;70430;-33
2021/06/17 07:11:54;;;;;;;;;;;;;;;33.99;52.57;100685.09;5082243;27;66880;-33
2021/06/17 07:14:25;;;;;;;;;;;;;;;34.05;52.28;100692.34;5085066;27;70452;-34
2021/06/17 07:16:57;;;;;;;;;;;;;;;34.07;52.29;100679.28;5080971;27;66147;-33
2021/06/17 07:19:29;;;;;;;;;;;;;;;34.10;52.09;100673.38;5076798;27;70254;-35
2021/06/17 07:22:01;;;;;;;;;;;;;;;34.12;52.08;100684.81;5083527;27;66012;-35
2021/06/17 07:24:32;;;;;;;;;;;;;;;34.13;52.19;100683.78;5086971;27;69326;-34
2021/06/17 07:27:04;;;;;;;;;;;;;;;34.13;52.12;100678.31;5078199;27;66208;-34
2021/06/17 07:29:38;;;;;;;;;;;;;;;34.13;51.89;100678.31;5079239;27;70153;-34
2021/06/17 07:32:10;;;;;;;;;;;;;;;34.14;52.02;100671.78;5089289;27;67091;-33
2021/06/17 07:34:44;;;;;;;;;;;;;;;34.14;52.22;100674.50;5085528;27;70623;-35
2021/06/17 07:37:17;;;;;;;;;;;;;;;34.14;51.95;100671.78;5074544;27;66739;-34
2021/06/17 07:39:48;;;;;;;;;;;;;;;34.14;51.91;100666.34;5087968;27;69296;-34
2021/06/17 07:42:20;;;;;;;;;;;;;;;34.16;52.01;100664.22;5086826;27;65675;-35
2021/06/17 07:44:55;;;;;;;;;;;;;;;34.17;51.76;100654.97;5077908;27;69872;-34
2021/06/17 07:47:27;;;;;;;;;;;;;;;34.20;51.82;100670.81;5091539;27;66084;-33
2021/06/17 07:49:58;;;;;;;;;;;;;;;34.20;51.70;100654.47;5097167;27;68745;-37
2021/06/17 07:52:30;;;;;;;;;;;;;;;34.21;51.56;100656.13;5076397;27;66378;-33
2021/06/17 07:55:03;;;;;;;;;;;;;;;34.21;51.90;100647.97;5089711;27;69799;-34
2021/06/17 07:57:34;;;;;;;;;;;;;;;34.19;51.81;100644.66;5078640;27;66834;-34
2021/06/17 08:00:07;;;;;;;;;;;;;;;34.21;51.81;100649.84;5085180;27;69987;-34
2021/06/17 08:02:38;;;;;;;;;;;;;;;34.20;51.62;100649.03;5078952;27;65746;-34
2021/06/17 08:05:10;;;;;;;;;;;;;;;34.19;51.58;100647.38;5087772;27;70756;-33
2021/06/17 08:07:45;;;;;;;;;;;;;;;34.19;51.73;100646.56;5092015;27;65751;-33
2021/06/17 08:10:16;;;;;;;;;;;;;;;34.19;51.67;100639.22;5079613;27;70865;-34
2021/06/17 08:12:48;;;;;;;;;;;;;;;34.20;51.62;100649.03;5076205;27;65981;-35
2021/06/17 08:15:22;;;;;;;;;;;;;;;34.22;51.66;100636.00;5084750;27;69951;-34
2021/06/17 08:17:53;;;;;;;;;;;;;;;34.22;51.68;100644.16;5083606;27;66228;-33
2021/06/17 08:20:27;;;;;;;;;;;;;;;34.21;51.55;100634.34;5096015;27;70124;-34
2021/06/17 08:22:59;;;;;;;;;;;;;;;34.22;51.86;100630.53;5087902;27;66194;-33
2021/06/17 08:25:32;;;;;;;;;;;;;;;34.25;51.62;100626.50;5082949;27;70011;-34
2021/06/17 08:28:05;;;;;;;;;;;;;;;34.26;51.69;100639.84;5088593;27;66272;-34
2021/06/17 08:30:36;;;;;;;;;;;;;;;34.29;51.57;100624.09;5086555;27;70031;-33
2021/06/17 08:33:08;;;;;;;;;;;;;;;34.29;51.57;100615.94;5096337;27;66579;-34
2021/06/17 08:35:39;;;;;;;;;;;;;;;34.29;51.76;100613.22;5088020;27;70062;-34
2021/06/17 08:38:10;;;;;;;;;;;;;;;34.32;51.60;100618.97;5081109;27;66232;-35
2021/06/17 08:40:42;;;;;;;;;;;;;;;34.34;51.51;100621.44;5083857;27;70366;-33
2021/06/17 08:43:14;;;;;;;;;;;;;;;34.33;51.56;100620.63;5079810;27;66119;-34
2021/06/17 08:45:46;;;;;;;;;;;;;;;34.35;51.37;100617.66;5082687;27;69503;-34
2021/06/17 08:48:17;;;;;;;;;;;;;;;34.34;51.46;100616.00;5078912;27;66571;-34
2021/06/17 08:50:53;;;;;;;;;;;;;;;34.37;51.32;100629.13;5081754;27;69210;-34
2021/06/17 08:53:24;;;;;;;;;;;;;;;34.37;51.55;100626.41;5086474;27;66371;-33
2021/06/17 08:55:56;;;;;;;;;;;;;;;34.38;51.18;100628.03;5080761;27;69276;-34
2021/06/17 08:58:28;;;;;;;;;;;;;;;34.37;51.25;100643.56;5084138;27;67480;-33
2021/06/17 09:00:59;;;;;;;;;;;;;;;34.39;51.37;100640.59;5080426;27;70809;-36
2021/06/17 09:03:38;;;;;;;;;;;;;;;34.40;50.95;100650.41;5082145;27;66116;-34
2021/06/17 09:06:09;;;;;;;;;;;;;;;34.39;51.07;100662.38;5088966;27;69762;-34
2021/06/17 09:08:40;;;;;;;;;;;;;;;34.37;51.04;100664.53;5088310;27;66093;-32
2021/06/17 09:11:19;;;;;;;;;;;;;;;34.38;51.01;100660.72;5084235;27;69694;-34
2021/06/17 09:13:51;;;;;;;;;;;;;;;34.36;50.75;100668.31;5086671;27;67182;-35
2021/06/17 09:16:26;;;;;;;;;;;;;;;34.38;51.00;100667.00;5077586;27;70197;-34
2021/06/17 09:18:57;;;;;;;;;;;;;;;34.37;51.13;100659.06;5089452;27;66227;-33
2021/06/17 09:21:28;;;;;;;;;;;;;;;34.37;50.78;100654.44;5087209;27;69817;-33
2021/06/17 09:24:00;;;;;;;;;;;;;;;34.36;51.15;100647.34;5086741;27;65250;-33
2021/06/17 09:26:32;;;;;;;;;;;;;;;34.37;50.71;100653.63;5096770;27;69250;-33
2021/06/17 09:29:07;;;;;;;;;;;;;;;34.37;50.96;100664.53;5081120;27;66216;-33
2021/06/17 09:31:41;;;;;;;;;;;;;;;34.35;51.12;100661.22;5086438;27;69132;-34
2021/06/17 09:34:14;;;;;;;;;;;;;;;34.35;50.75;100666.66;5089279;27;66147;-33
2021/06/17 09:36:45;;;;;;;;;;;;;;;34.35;50.87;100683.00;5084077;27;70023;-34
2021/06/17 09:39:19;;;;;;;;;;;;;;;34.34;51.25;100697.69;5075712;27;65308;-33
2021/06/17 09:41:51;;;;;;;;;;;;;;;34.31;51.00;100693.56;5088021;27;69465;-33
2021/06/17 09:44:37;;;;;;;;;;;;;;;34.31;51.13;100700.91;5077263;27;66321;-34
2021/06/17 09:47:09;;;;;;;;;;;;;;;34.29;51.05;100705.78;5082683;27;70545;-33
2021/06/17 09:49:43;;;;;;;;;;;;;;;34.28;51.00;100712.31;5082838;27;66342;-33
2021/06/17 09:52:14;;;;;;;;;;;;;;;34.28;51.18;100717.75;5081061;27;69935;-33
2021/06/17 09:54:49;;;;;;;;;;;;;;;34.25;51.35;100728.06;5080811;27;66184;-34
2021/06/17 09:57:23;;;;;;;;;;;;;;;34.24;51.25;100728.28;5079687;27;70081;-33
2021/06/17 10:00:05;;;;;;;;;;;;;;;34.23;51.08;100719.31;5077458;27;66376;-33
2021/06/17 10:02:40;;;;;;;;;;;;;;;34.22;51.26;100716.84;5087053;27;69954;-33
2021/06/17 10:05:18;;;;;;;;;;;;;;;34.10;52.78;100714.22;5082996;27;67106;-35
2021/06/17 10:07:50;;;;;;;;;;;;;;;34.00;53.56;100719.44;5077425;27;69832;-34
2021/06/17 10:10:22;;;;;;;;;;;;;;;33.98;53.20;100727.81;5080776;27;66496;-35
2021/06/17 10:12:53;;;;;;;;;;;;;;;33.98;52.84;100737.91;5080973;27;70434;-37
2021/06/17 10:15:26;;;;;;;;;;;;;;;33.94;52.94;100731.31;5081657;27;65935;-34
2021/06/17 10:17:57;;;;;;;;;;;;;;;33.90;52.38;100749.19;5085662;27;70067;-36
2021/06/17 10:20:28;;;;;;;;;;;;;;;33.87;51.86;100763.28;5088061;27;65672;-35
2021/06/17 10:23:00;;;;;;;;;;;;;;;33.79;51.91;100768.06;5080713;27;69560;-34
2021/06/17 10:25:32;;;;;;;;;;;;;;;33.76;51.63;100767.69;5067627;27;66507;-35
2021/06/17 10:28:04;;;;;;;;;;;;;;;33.72;51.76;100761.91;5083569;27;69744;-36
2021/06/17 10:30:46;;;;;;;;;;;;;;;33.72;51.43;100761.91;5077620;27;65370;-35
2021/06/17 10:33:26;;;;;;;;;;;;;;;33.69;51.88;100762.41;5076128;27;69176;-34
2021/06/17 10:36:38;;;;;;;;;;;;;;;33.69;52.18;100756.16;5077389;27;65921;-36
2021/06/17 10:39:09;;;;;;;;;;;;;;;33.68;52.62;100754.47;5047383;28;70608;-34
2021/06/17 10:42:06;;;;;;;;;;;;;;;33.66;52.26;100743.84;5052573;28;65995;-33
2021/06/17 10:44:45;;;;;;;;;;;;;;;33.65;52.53;100755.78;5078759;27;70115;-34
2021/06/17 10:47:34;;;;;;;;;;;;;;;33.65;52.54;100771.28;5082206;27;65336;-34
2021/06/17 10:50:05;;;;;;;;;;;;;;;33.62;53.08;100777.22;5078279;27;69061;-38
2021/06/17 10:52:37;;;;;;;;;;;;;;;33.62;53.83;100767.16;5081837;27;66487;-36
2021/06/17 10:55:09;;;;;;;;;;;;;;;33.61;54.21;100760.06;5081124;27;69013;-35
2021/06/17 11:00:30;;;;;;;;;;;;;;;33.61;55.04;100761.97;5088012;27;69924;-36
2021/06/17 11:03:05;;;;;;;;;;;;;;;33.62;55.30;100766.31;5086833;27;66954;-36
2021/06/17 11:05:39;;;;;;;;;;;;;;;33.60;55.66;100774.75;5091771;27;70158;-36
2021/06/17 11:08:16;;;;;;;;;;;;;;;33.60;55.95;100769.31;5095487;27;65691;-36
2021/06/17 11:10:49;;;;;;;;;;;;;;;33.59;56.24;100762.19;5090061;27;70096;-35
2021/06/17 11:13:38;;;;;;;;;;;;;;;33.40;56.78;100749.81;5089241;27;66236;-35
2021/06/17 11:16:12;;;;;;;;;;;;;;;33.57;57.19;100775.19;5090432;27;70021;-36
2021/06/17 11:18:45;;;;;;;;;;;;;;;33.56;56.94;100779.00;5089757;27;65569;-36
2021/06/17 11:21:30;;;;;;;;;;;;;;;33.55;57.71;100793.69;5068828;28;69207;-35
2021/06/17 11:24:08;;;;;;;;;;;;;;;33.37;58.35;100779.13;5082260;27;66302;-36
2021/06/17 11:26:48;;;;;;;;;;;;;;;33.56;57.85;100806.19;5088210;27;69909;-35
2021/06/17 11:29:36;;;;;;;;;;;;;;;33.54;57.95;100822.78;5081601;27;66211;-36
2021/06/17 11:32:27;;;;;;;;;;;;;;;33.52;58.86;100813.16;5085742;27;69037;-35
2021/06/17 11:34:58;;;;;;;;;;;;;;;33.50;58.74;100818.84;5087728;27;66798;-35
2021/06/17 11:37:30;;;;;;;;;;;;;;;33.50;59.23;100818.00;5084567;27;69888;-34
2021/06/17 11:40:02;;;;;;;;;;;;;;;33.50;58.88;100812.56;5090663;27;66166;-35
2021/06/17 11:42:34;;;;;;;;;;;;;;;33.49;59.08;100821.78;5084816;27;70247;-34
2021/06/17 11:45:08;;;;;;;;;;;;;;;33.48;59.55;100820.13;5085978;27;66027;-34
2021/06/17 11:47:46;;;;;;;;;;;;;;;33.49;59.71;100827.22;5087387;27;69854;-35
2021/06/17 11:50:17;;;;;;;;;;;;;;;33.44;60.00;100821.69;5087695;27;65593;-34
2021/06/17 11:52:48;;;;;;;;;;;;;;;33.35;58.10;100824.78;5084468;27;69195;-33
2021/06/17 11:55:20;;;;;;;;;;;;;;;33.19;56.34;100833.66;5086015;27;66484;-34
2021/06/17 11:57:52;;;;;;;;;;;;;;;33.00;54.12;100840.28;5080819;27;69225;-33
2021/06/17 12:00:32;;;;;;;;;;;;;;;32.83;52.65;100846.38;5091181;27;66568;-34
2021/06/17 12:03:14;;;;;;;;;;;;;;;32.68;52.04;100854.13;5088279;27;69187;-32
2021/06/17 12:05:44;;;;;;;;;;;;;;;32.47;51.20;100859.03;5086494;27;66306;-34
2021/06/17 12:08:15;;;;;;;;;;;;;;;32.37;50.33;100869.59;5086690;27;69855;-33
2021/06/17 12:10:51;;;;;;;;;;;;;;;32.26;49.63;100862.25;5094680;27;67550;-33
2021/06/17 12:13:22;;;;;;;;;;;;;;;32.12;49.29;100880.59;5093552;27;70005;-33
2021/06/17 12:15:59;;;;;;;;;;;;;;;31.97;49.17;100889.13;5083160;27;65383;-33
2021/06/17 12:18:30;;;;;;;;;;;;;;;31.92;50.74;100899.84;5087542;27;69160;-34
2021/06/17 12:21:03;;;;;;;;;;;;;;;31.87;50.68;100913.22;5058027;27;65711;-38
2021/06/17 12:23:34;;;;;;;;;;;;;;;31.79;50.72;100936.06;5088164;27;69737;-35
2021/06/17 12:26:06;;;;;;;;;;;;;;;31.73;51.18;100930.69;5109004;27;66069;-33
2021/06/17 12:28:51;;;;;;;;;;;;;;;31.59;51.41;100921.88;5086704;27;69412;-35
2021/06/17 12:31:26;;;;;;;;;;;;;;;31.50;52.92;100928.66;5088819;27;65387;-31
2021/06/17 12:34:12;;;;;;;;;;;;;;;31.41;53.12;100933.53;5084866;27;70160;-32
2021/06/17 12:36:44;;;;;;;;;;;;;;;31.35;53.33;100937.09;5061517;27;66326;-33
2021/06/17 12:39:16;;;;;;;;;;;;;;;31.28;52.91;100949.88;5086572;27;69941;-32
2021/06/17 12:41:48;;;;;;;;;;;;;;;31.17;52.97;100946.00;5085418;27;66386;-33
2021/06/17 12:44:31;;;;;;;;;;;;;;;31.08;52.08;100953.56;5082182;27;69290;-35
2021/06/17 12:47:06;;;;;;;;;;;;;;;31.05;51.73;100972.97;5089344;27;66263;-33
2021/06/17 12:52:36;;;;;;;;;;;;;;;30.86;51.24;100966.63;5085658;27;65275;-32
2021/06/17 12:55:11;;;;;;;;;;;;;;;30.80;50.85;100947.72;5085928;27;70100;-34
2021/06/17 12:57:56;;;;;;;;;;;;;;;30.72;51.00;100940.66;5080202;27;65893;-34
2021/06/17 13:00:33;;;;;;;;;;;;;;;30.64;50.75;100933.63;5085537;27;69371;-32
2021/06/17 13:03:05;;;;;;;;;;;;;;;30.59;50.69;100938.88;5085865;27;66389;-34
2021/06/17 13:05:43;;;;;;;;;;;;;;;30.49;50.97;100943.91;5079747;27;70611;-34
2021/06/17 13:08:14;;;;;;;;;;;;;;;30.45;51.11;100958.91;5086839;27;64921;-34
2021/06/17 13:10:49;;;;;;;;;;;;;;;30.40;50.14;100985.81;5081271;27;69758;-33
2021/06/17 13:13:21;;;;;;;;;;;;;;;30.31;50.98;101000.63;5082879;27;65941;-32
2021/06/17 13:15:55;;;;;;;;;;;;;;;30.24;50.26;101006.88;5082376;27;69200;-33